Time;durP1;ratioP1;P1;durP2;ratioP2;P2;SDS_P1;SDS_P2;PMS_P1;PMS_P2;Temp;Humidity;BMP_temperature;BMP_pressure;BME280_temperature;BME280_humidity;BME280_pressure;Samples;Min_cycle;Max_cycle;Signal;HPM_P1;HPM_P2
2022/10/24 00:02:03;;;;;;;5.63;2.30;;;14.90;99.90;;;;;;5012541;28;20052;-70
2022/10/24 00:04:29;;;;;;;7.45;2.50;;;14.80;99.90;;;;;;5012413;28;20042;-69
2022/10/24 00:06:54;;;;;;;5.82;2.25;;;15.10;99.90;;;;;;5012416;28;20049;-70
2022/10/24 00:09:20;;;;;;;7.85;2.50;;;14.90;99.90;;;;;;5011945;28;20038;-69
2022/10/24 00:11:45;;;;;;;5.53;2.25;;;15.10;99.90;;;;;;5012499;28;20030;-69
2022/10/24 00:14:11;;;;;;;7.93;1.92;;;15.10;99.90;;;;;;5012186;28;20076;-69
2022/10/24 00:16:36;;;;;;;5.88;1.80;;;15.10;99.90;;;;;;5012239;28;20038;-69
2022/10/24 00:19:02;;;;;;;8.23;2.60;;;15.10;99.90;;;;;;5012520;28;20037;-69
2022/10/24 00:21:28;;;;;;;3.65;1.98;;;14.90;99.90;;;;;;5012228;28;20073;-69
2022/10/24 00:23:54;;;;;;;6.50;1.90;;;14.80;99.90;;;;;;5012096;28;20040;-70
2022/10/24 00:26:19;;;;;;;4.10;2.40;;;14.80;99.90;;;;;;5012269;28;20431;-69
2022/10/24 00:28:45;;;;;;;5.07;1.90;;;15.10;99.90;;;;;;5012230;28;20407;-69
2022/10/24 00:31:16;;;;;;;6.60;2.00;;;14.80;99.90;;;;;;5012096;28;20037;-69
2022/10/24 00:33:42;;;;;;;4.57;2.25;;;15.00;99.90;;;;;;5011906;28;20045;-70
2022/10/24 00:36:13;;;;;;;6.45;2.17;;;14.70;99.90;;;;;;5012010;28;20046;-69
2022/10/24 00:38:39;;;;;;;9.25;2.15;;;14.80;99.90;;;;;;5012104;28;20435;-69
2022/10/24 00:41:04;;;;;;;4.95;2.10;;;14.90;99.90;;;;;;5012041;28;20041;-69
2022/10/24 00:43:30;;;;;;;5.43;2.65;;;15.00;99.90;;;;;;5011625;28;20121;-69
2022/10/24 00:45:58;;;;;;;5.32;2.22;;;14.80;99.90;;;;;;5012141;28;20042;-70
2022/10/24 00:48:34;;;;;;;7.45;1.70;;;15.00;99.90;;;;;;5012169;28;20068;-70
2022/10/24 00:51:07;;;;;;;4.63;1.98;;;14.90;99.90;;;;;;5012162;28;20121;-70
2022/10/24 00:53:37;;;;;;;4.78;1.65;;;14.90;99.90;;;;;;5011672;28;20041;-69
2022/10/24 00:56:05;;;;;;;4.25;1.80;;;15.00;99.90;;;;;;5011777;28;20041;-70
2022/10/24 00:58:33;;;;;;;8.48;2.17;;;15.00;99.90;;;;;;5011799;28;20472;-70
2022/10/24 01:00:59;;;;;;;4.88;1.55;;;15.00;99.90;;;;;;5012176;28;20046;-70
2022/10/24 01:03:25;;;;;;;3.83;2.05;;;15.00;99.90;;;;;;5011659;28;20526;-69
2022/10/24 01:06:17;;;;;;;10.15;2.10;;;14.90;99.90;;;;;;5011709;28;20046;-69
2022/10/24 01:08:49;;;;;;;4.82;1.60;;;15.00;99.90;;;;;;5011708;28;20153;-70
2022/10/24 01:11:46;;;;;;;6.93;1.85;;;14.70;99.90;;;;;;5011949;28;20049;-70
2022/10/24 01:14:24;;;;;;;7.13;2.15;;;14.70;99.90;;;;;;5011456;28;20089;-69
2022/10/24 01:16:59;;;;;;;4.38;1.88;;;14.90;99.90;;;;;;5011655;28;20045;-69
2022/10/24 01:19:37;;;;;;;5.78;1.65;;;14.60;99.90;;;;;;5013047;28;20049;-69
2022/10/24 01:22:06;;;;;;;7.95;1.63;;;14.80;99.90;;;;;;5015562;28;20038;-69
2022/10/24 01:24:56;;;;;;;6.60;2.08;;;14.80;99.90;;;;;;5015040;28;20037;-70
2022/10/24 01:27:46;;;;;;;7.68;2.63;;;14.60;99.90;;;;;;5015457;28;20124;-70
2022/10/24 01:30:14;;;;;;;7.13;1.80;;;14.80;99.90;;;;;;5015613;28;20165;-69
2022/10/24 01:32:46;;;;;;;8.20;1.70;;;14.70;99.90;;;;;;5015193;28;20372;-69
2022/10/24 01:35:24;;;;;;;5.25;2.13;;;14.80;99.90;;;;;;5015411;28;20045;-69
2022/10/24 01:38:18;;;;;;;3.15;1.58;;;14.70;99.90;;;;;;5013964;28;20565;-69
2022/10/24 01:41:02;;;;;;;5.28;2.33;;;14.80;99.90;;;;;;5013923;28;20132;-70
2022/10/24 01:43:32;;;;;;;6.25;2.08;;;14.70;99.90;;;;;;5014913;28;20045;-70
2022/10/24 01:46:03;;;;;;;3.22;1.90;;;14.80;99.90;;;;;;5015154;28;20046;-69
2022/10/24 01:48:33;;;;;;;5.78;1.83;;;14.80;99.90;;;;;;5015336;28;20396;-69
2022/10/24 01:51:02;;;;;;;10.75;2.92;;;14.90;99.90;;;;;;5015247;28;20038;-70
2022/10/24 01:53:29;;;;;;;5.80;2.10;;;14.90;99.90;;;;;;5013417;28;20049;-69
2022/10/24 01:55:56;;;;;;;7.45;1.98;;;15.00;99.90;;;;;;5014968;28;20092;-70
2022/10/24 01:58:21;;;;;;;4.40;1.92;;;15.20;99.90;;;;;;5014920;28;20041;-69
2022/10/24 02:00:48;;;;;;;8.98;2.25;;;14.90;99.90;;;;;;5014692;28;20113;-69
2022/10/24 02:03:26;;;;;;;7.78;2.00;;;15.00;99.90;;;;;;5014336;28;20038;-69
2022/10/24 02:05:57;;;;;;;5.03;1.83;;;15.00;99.90;;;;;;5014868;28;20053;-69
2022/10/24 02:08:30;;;;;;;8.20;2.25;;;15.00;99.90;;;;;;5014864;28;20092;-71
2022/10/24 02:11:00;;;;;;;8.85;2.50;;;15.30;99.90;;;;;;5014602;28;20407;-69
2022/10/24 02:13:47;;;;;;;4.97;1.90;;;15.30;99.90;;;;;;5014507;28;20121;-69
2022/10/24 02:16:17;;;;;;;8.40;2.30;;;15.30;99.90;;;;;;5014561;28;20639;-70
2022/10/24 02:18:43;;;;;;;7.35;1.95;;;15.00;99.90;;;;;;5014564;28;20045;-70
2022/10/24 02:21:34;;;;;;;4.43;1.90;;;15.30;99.90;;;;;;5014499;28;20037;-69
2022/10/24 02:24:11;;;;;;;9.93;2.92;;;15.00;99.90;;;;;;5014351;28;20045;-70
2022/10/24 02:27:19;;;;;;;6.18;2.38;;;15.30;99.90;;;;;;5014453;28;20034;-69
2022/10/24 02:30:09;;;;;;;9.80;3.08;;;15.30;99.90;;;;;;5008499;28;20500;-69
2022/10/24 02:32:39;;;;;;;8.25;2.40;;;14.90;99.90;;;;;;5012290;28;20376;-69
2022/10/24 02:35:06;;;;;;;8.00;2.20;;;15.20;99.90;;;;;;5014412;28;20065;-70
2022/10/24 02:37:35;;;;;;;7.90;2.75;;;14.90;99.90;;;;;;5012985;28;20479;-70
2022/10/24 02:40:04;;;;;;;5.43;2.33;;;15.20;99.90;;;;;;5014172;28;20103;-70
2022/10/24 02:42:31;;;;;;;4.50;2.40;;;15.00;99.90;;;;;;5013774;28;20073;-70
2022/10/24 02:45:00;;;;;;;7.55;2.75;;;15.20;99.90;;;;;;5014152;28;20052;-70
2022/10/24 02:47:27;;;;;;;7.35;2.47;;;15.20;99.90;;;;;;5014109;28;20116;-69
2022/10/24 02:49:53;;;;;;;3.80;2.17;;;15.10;99.90;;;;;;5014057;28;20076;-70
2022/10/24 02:52:19;;;;;;;6.30;2.83;;;15.20;99.90;;;;;;5013614;28;20500;-70
2022/10/24 02:54:45;;;;;;;9.32;2.80;;;15.30;99.90;;;;;;5013669;28;20125;-69
2022/10/24 02:57:12;;;;;;;5.53;2.45;;;15.10;99.90;;;;;;5014045;28;20092;-70
2022/10/24 02:59:38;;;;;;;9.55;2.30;;;15.20;99.90;;;;;;5013936;28;20041;-70
2022/10/24 03:02:03;;;;;;;6.50;2.92;;;15.40;99.90;;;;;;5013701;28;20049;-69
2022/10/24 03:04:29;;;;;;;11.45;2.08;;;15.20;99.90;;;;;;5013407;28;20500;-69
2022/10/24 03:06:54;;;;;;;7.65;2.40;;;15.40;99.90;;;;;;5013569;28;20084;-70
2022/10/24 03:09:20;;;;;;;6.57;2.42;;;15.30;99.90;;;;;;5013564;28;20213;-70
2022/10/24 03:11:46;;;;;;;5.72;2.72;;;15.20;99.90;;;;;;5013488;28;20067;-70
2022/10/24 03:14:11;;;;;;;6.95;2.08;;;15.40;99.90;;;;;;5013342;28;20042;-70
2022/10/24 03:16:37;;;;;;;4.07;2.17;;;15.20;99.90;;;;;;5013472;28;20034;-70
2022/10/24 03:19:02;;;;;;;11.55;2.38;;;15.50;99.90;;;;;;5013503;28;20046;-70
2022/10/24 03:21:28;;;;;;;6.40;2.17;;;15.50;99.90;;;;;;5012959;28;20038;-70
2022/10/24 03:23:53;;;;;;;10.82;2.53;;;15.50;99.90;;;;;;5049437;23;20095;-71
2022/10/24 03:26:19;;;;;;;7.15;2.05;;;15.50;99.90;;;;;;5033325;28;20041;-71
2022/10/24 03:28:44;;;;;;;6.68;2.22;;;15.40;99.90;;;;;;5033106;28;20376;-71
2022/10/24 03:31:10;;;;;;;3.88;1.75;;;15.40;99.90;;;;;;5015120;28;20506;-71
2022/10/24 03:33:36;;;;;;;7.07;2.90;;;15.40;99.90;;;;;;5032963;28;20034;-71
2022/10/24 03:36:02;;;;;;;6.65;2.60;;;15.40;99.90;;;;;;5033019;28;20107;-71
2022/10/24 03:38:27;;;;;;;9.13;2.42;;;15.50;99.90;;;;;;5032889;28;20107;-71
2022/10/24 03:40:53;;;;;;;9.23;3.42;;;15.60;99.90;;;;;;5033076;28;20049;-71
2022/10/24 03:43:18;;;;;;;9.07;3.65;;;15.60;99.90;;;;;;5032431;28;20458;-71
2022/10/24 03:45:44;;;;;;;9.07;2.95;;;15.50;99.90;;;;;;5032870;28;20399;-71
2022/10/24 03:48:10;;;;;;;10.25;2.42;;;15.50;99.90;;;;;;5032618;28;20029;-71
2022/10/24 03:50:36;;;;;;;7.10;2.53;;;15.70;99.90;;;;;;5031811;28;20103;-71
2022/10/24 03:53:03;;;;;;;5.97;2.13;;;15.50;99.90;;;;;;5032177;28;20041;-71
2022/10/24 03:55:28;;;;;;;5.40;2.30;;;15.60;99.90;;;;;;5032668;28;20037;-71
2022/10/24 03:57:54;;;;;;;8.80;3.15;;;15.50;99.90;;;;;;5032751;28;20044;-71
2022/10/24 04:00:20;;;;;;;7.88;3.20;;;15.60;99.90;;;;;;5032534;28;20040;-71
2022/10/24 04:02:46;;;;;;;6.00;2.33;;;15.50;99.90;;;;;;5030712;28;20082;-71
2022/10/24 04:05:12;;;;;;;6.43;2.70;;;15.60;99.90;;;;;;5031273;28;20037;-71
2022/10/24 04:07:38;;;;;;;9.23;2.67;;;15.40;99.90;;;;;;5032381;28;20042;-71
2022/10/24 04:10:05;;;;;;;6.20;3.03;;;15.40;99.90;;;;;;5031049;28;20041;-71
2022/10/24 04:12:31;;;;;;;11.88;3.00;;;15.50;99.90;;;;;;5030589;28;20195;-72
2022/10/24 04:14:57;;;;;;;6.63;2.50;;;15.60;99.90;;;;;;5032432;28;20056;-71
2022/10/24 04:17:22;;;;;;;7.88;2.35;;;15.60;99.90;;;;;;5032296;28;20037;-71
2022/10/24 04:19:48;;;;;;;7.70;2.63;;;15.50;99.90;;;;;;5032273;28;20117;-72
2022/10/24 04:22:13;;;;;;;5.18;2.13;;;15.40;99.90;;;;;;5031793;28;20049;-71
2022/10/24 04:24:39;;;;;;;8.75;2.28;;;15.40;99.90;;;;;;5027683;28;20040;-71
2022/10/24 04:27:06;;;;;;;8.32;2.50;;;15.40;99.90;;;;;;5029014;28;20582;-71
2022/10/24 04:29:32;;;;;;;9.25;2.47;;;15.20;99.90;;;;;;5030969;28;20088;-71
2022/10/24 04:31:58;;;;;;;6.22;2.20;;;15.20;99.90;;;;;;5030879;28;20049;-71
2022/10/24 04:34:24;;;;;;;6.72;2.40;;;15.30;99.90;;;;;;5029741;28;20029;-71
2022/10/24 04:36:49;;;;;;;7.50;2.67;;;15.10;99.90;;;;;;5030132;28;20044;-71
2022/10/24 04:39:21;;;;;;;7.55;2.75;;;15.00;99.90;;;;;;5031804;28;20044;-73
2022/10/24 04:41:46;;;;;;;7.15;2.10;;;15.00;99.90;;;;;;5031968;28;20099;-73
2022/10/24 04:44:12;;;;;;;10.23;2.95;;;15.10;99.90;;;;;;5030234;28;20042;-73
2022/10/24 04:46:38;;;;;;;5.20;1.80;;;14.90;99.90;;;;;;5031883;28;20048;-73
2022/10/24 04:49:03;;;;;;;6.80;2.30;;;14.90;99.90;;;;;;5031932;28;20041;-72
2022/10/24 04:51:29;;;;;;;7.78;2.70;;;15.00;99.90;;;;;;5031780;28;20041;-73
2022/10/24 04:53:57;;;;;;;6.00;2.20;;;15.00;99.90;;;;;;5030619;28;20499;-71
2022/10/24 04:56:24;;;;;;;4.57;2.42;;;14.80;99.90;;;;;;5031839;28;20041;-71
2022/10/24 04:58:50;;;;;;;5.50;2.00;;;14.90;99.90;;;;;;5031743;28;20088;-71
2022/10/24 05:01:16;;;;;;;6.28;2.83;;;14.90;99.90;;;;;;5031468;28;20127;-71
2022/10/24 05:03:41;;;;;;;7.05;2.35;;;14.70;99.90;;;;;;5031142;28;20040;-71
2022/10/24 05:06:07;;;;;;;7.88;2.60;;;14.80;99.90;;;;;;5031167;28;20601;-71
2022/10/24 05:08:32;;;;;;;6.22;2.42;;;14.80;99.90;;;;;;5031666;28;20070;-72
2022/10/24 05:10:58;;;;;;;9.30;2.53;;;14.70;99.90;;;;;;5031600;28;20508;-72
2022/10/24 05:13:23;;;;;;;7.60;2.22;;;14.80;99.90;;;;;;5031211;28;20037;-71
2022/10/24 05:15:49;;;;;;;7.53;2.38;;;14.60;99.90;;;;;;5031387;28;20120;-71
2022/10/24 05:18:14;;;;;;;5.45;2.00;;;14.60;99.90;;;;;;5031303;28;20505;-71
2022/10/24 05:20:40;;;;;;;5.65;2.13;;;14.70;99.90;;;;;;5031343;28;20038;-71
2022/10/24 05:23:05;;;;;;;7.47;2.42;;;14.70;99.90;;;;;;5030969;28;20052;-71
2022/10/24 05:25:31;;;;;;;5.65;2.08;;;14.60;99.90;;;;;;5031459;28;20128;-71
2022/10/24 05:27:56;;;;;;;4.43;1.80;;;14.50;99.90;;;;;;5031500;28;20042;-71
2022/10/24 05:30:22;;;;;;;7.78;2.00;;;14.50;99.90;;;;;;5033919;28;20040;-71
2022/10/24 05:32:48;;;;;;;5.20;1.80;;;14.60;99.90;;;;;;5041413;28;20032;-71
2022/10/24 05:35:13;;;;;;;6.60;2.78;;;14.80;99.90;;;;;;5042138;28;20037;-71
2022/10/24 05:37:39;;;;;;;6.53;1.70;;;14.70;99.90;;;;;;5051400;28;20045;-70
2022/10/24 05:40:09;;;;;;;8.77;2.50;;;14.70;99.90;;;;;;5051234;28;20118;-72
2022/10/24 05:42:37;;;;;;;4.55;1.92;;;14.60;99.90;;;;;;5050919;28;20116;-71
2022/10/24 05:45:04;;;;;;;8.23;1.90;;;14.70;99.90;;;;;;5051093;28;20415;-72
2022/10/24 05:47:30;;;;;;;7.57;2.17;;;14.70;99.90;;;;;;5051214;28;20175;-71
2022/10/24 05:49:55;;;;;;;8.75;2.03;;;14.60;99.90;;;;;;5050962;28;20124;-72
2022/10/24 05:52:21;;;;;;;6.93;1.77;;;14.60;99.90;;;;;;5050854;28;20149;-71
2022/10/24 05:54:46;;;;;;;6.45;2.15;;;14.70;99.90;;;;;;5051234;28;20072;-71
2022/10/24 05:57:12;;;;;;;3.50;1.60;;;14.60;99.90;;;;;;5050967;28;20037;-71
2022/10/24 05:59:37;;;;;;;6.65;2.58;;;14.70;99.90;;;;;;5050927;28;20044;-71
2022/10/24 06:02:03;;;;;;;8.88;2.75;;;14.60;99.90;;;;;;5050520;28;20116;-71
2022/10/24 06:04:28;;;;;;;16.98;3.38;;;14.70;99.90;;;;;;5050406;28;20041;-71
2022/10/24 06:06:54;;;;;;;5.65;1.92;;;14.70;99.90;;;;;;5054726;28;20037;-71
2022/10/24 06:09:19;;;;;;;8.80;2.17;;;14.70;99.90;;;;;;5054746;28;20116;-71
2022/10/24 06:11:45;;;;;;;9.75;1.70;;;14.70;99.90;;;;;;5054398;28;20041;-71
2022/10/24 06:14:10;;;;;;;5.22;1.75;;;14.80;99.90;;;;;;5054061;28;20106;-72
2022/10/24 06:16:36;;;;;;;5.10;1.50;;;14.70;99.90;;;;;;5054538;28;20082;-71
2022/10/24 06:19:02;;;;;;;6.47;1.85;;;14.90;99.90;;;;;;5053159;28;20446;-71
2022/10/24 06:21:27;;;;;;;4.97;1.77;;;14.80;99.90;;;;;;5054526;28;20041;-71
2022/10/24 06:23:53;;;;;;;7.97;1.90;;;14.90;99.90;;;;;;5053821;28;20079;-71
2022/10/24 06:26:19;;;;;;;5.47;2.08;;;14.70;99.90;;;;;;5054274;28;20041;-71
2022/10/24 06:28:44;;;;;;;7.63;1.42;;;14.80;99.90;;;;;;5054193;28;20040;-71
2022/10/24 06:31:11;;;;;;;6.95;1.80;;;14.80;99.90;;;;;;5054183;28;20040;-71
2022/10/24 06:33:38;;;;;;;5.22;1.70;;;14.90;99.90;;;;;;5053661;28;20037;-72
2022/10/24 06:36:05;;;;;;;3.10;1.63;;;14.90;99.90;;;;;;5054226;28;20044;-72
2022/10/24 06:38:31;;;;;;;5.63;1.48;;;14.90;99.90;;;;;;5054168;28;20116;-72
2022/10/24 06:40:57;;;;;;;3.42;1.50;;;14.90;99.90;;;;;;5053920;28;20443;-71
2022/10/24 06:43:23;;;;;;;7.63;1.55;;;14.90;99.90;;;;;;5053572;28;20095;-72
2022/10/24 06:45:49;;;;;;;3.03;1.30;;;15.00;99.90;;;;;;5053865;28;20495;-72
2022/10/24 06:48:14;;;;;;;4.65;1.63;;;14.90;99.90;;;;;;5053755;28;20040;-73
2022/10/24 06:50:40;;;;;;;5.22;1.88;;;14.90;99.90;;;;;;5053965;28;20121;-72
2022/10/24 06:53:07;;;;;;;7.30;1.70;;;15.00;99.90;;;;;;5035776;28;20045;-71
2022/10/24 06:55:33;;;;;;;5.22;1.15;;;14.90;99.90;;;;;;5053780;28;20037;-72
2022/10/24 06:57:59;;;;;;;6.53;1.80;;;14.90;99.90;;;;;;5053516;28;20079;-72
2022/10/24 07:00:24;;;;;;;3.67;1.45;;;14.90;99.90;;;;;;5052305;28;20037;-72
2022/10/24 07:02:50;;;;;;;4.75;1.55;;;14.90;99.90;;;;;;5053089;28;20063;-72
2022/10/24 07:05:16;;;;;;;6.80;1.80;;;15.00;99.90;;;;;;5053456;28;20037;-72
2022/10/24 07:07:42;;;;;;;6.15;1.90;;;15.00;99.90;;;;;;5052152;28;20044;-72
2022/10/24 07:10:11;;;;;;;4.45;1.77;;;15.10;99.90;;;;;;5053478;28;20091;-71
2022/10/24 07:12:37;;;;;;;6.22;1.63;;;15.20;99.90;;;;;;5051672;28;20060;-72
2022/10/24 07:15:03;;;;;;;10.48;1.77;;;15.40;99.90;;;;;;5052132;28;20410;-72
2022/10/24 07:17:29;;;;;;;5.90;1.38;;;15.50;99.90;;;;;;5052670;28;20049;-72
2022/10/24 07:19:55;;;;;;;5.00;1.40;;;15.80;99.90;;;;;;5053337;28;20044;-72
2022/10/24 07:22:22;;;;;;;4.13;1.90;;;15.60;99.90;;;;;;5051831;28;20045;-72
2022/10/24 07:24:54;;;;;;;7.47;1.70;;;15.70;99.90;;;;;;5053093;28;20044;-73
2022/10/24 07:27:21;;;;;;;4.93;1.42;;;15.60;99.90;;;;;;5053046;28;20120;-72
2022/10/24 07:29:47;;;;;;;4.43;1.40;;;15.60;99.90;;;;;;5053037;28;20399;-72
2022/10/24 07:32:12;;;;;;;7.22;1.38;;;15.60;99.90;;;;;;5052835;28;20045;-72
2022/10/24 07:34:39;;;;;;;5.53;1.60;;;15.60;99.90;;;;;;5052729;28;20060;-72
2022/10/24 07:37:04;;;;;;;5.35;1.60;;;15.70;99.90;;;;;;5053034;28;20049;-72
2022/10/24 07:39:30;;;;;;;3.40;1.33;;;15.60;99.90;;;;;;5053070;28;20566;-72
2022/10/24 07:41:56;;;;;;;6.60;1.25;;;15.80;99.90;;;;;;5052526;28;20091;-72
2022/10/24 07:44:21;;;;;;;4.65;1.27;;;16.00;99.90;;;;;;5052378;28;20041;-72
2022/10/24 07:46:47;;;;;;;8.27;1.90;;;16.20;99.90;;;;;;5051574;28;20127;-72
2022/10/24 07:49:15;;;;;;;4.00;1.27;;;16.40;99.90;;;;;;5052696;28;20033;-72
2022/10/24 07:51:41;;;;;;;4.70;1.50;;;16.60;99.90;;;;;;5052878;28;20033;-72
2022/10/24 07:54:07;;;;;;;5.95;1.40;;;16.70;99.90;;;;;;5052231;28;20120;-72
2022/10/24 07:56:33;;;;;;;5.82;1.23;;;16.70;99.90;;;;;;5052577;28;20568;-72
2022/10/24 07:59:00;;;;;;;10.65;2.40;;;16.80;99.90;;;;;;5052260;28;20501;-72
2022/10/24 08:01:26;;;;;;;6.20;1.70;;;16.60;99.90;;;;;;5052421;28;20045;-72
2022/10/24 08:03:52;;;;;;;7.38;1.50;;;16.60;99.90;;;;;;5052163;28;20032;-72
2022/10/24 08:06:20;;;;;;;12.55;1.92;;;16.60;99.90;;;;;;5052404;28;20052;-72
2022/10/24 08:08:46;;;;;;;3.70;1.50;;;16.60;99.90;;;;;;5052224;28;20037;-72
2022/10/24 08:11:16;;;;;;;5.72;1.45;;;16.80;99.90;;;;;;5052137;28;20033;-71
2022/10/24 08:13:41;;;;;;;7.18;1.20;;;16.60;99.90;;;;;;5051615;28;20124;-71
2022/10/24 08:16:09;;;;;;;6.32;1.38;;;16.60;99.90;;;;;;5052344;28;20073;-71
2022/10/24 08:18:36;;;;;;;3.90;1.40;;;16.50;99.90;;;;;;5052337;28;20120;-71
2022/10/24 08:21:04;;;;;;;4.97;1.85;;;16.50;99.90;;;;;;5052257;28;20036;-72
2022/10/24 08:23:31;;;;;;;5.25;2.10;;;16.40;99.90;;;;;;5051637;28;20127;-71
2022/10/24 08:25:57;;;;;;;7.60;2.33;;;16.50;99.90;;;;;;5051792;28;20110;-72
2022/10/24 08:28:23;;;;;;;8.38;2.08;;;16.70;99.90;;;;;;5051585;28;20033;-71
2022/10/24 08:31:00;;;;;;;4.88;1.52;;;16.70;99.90;;;;;;5051769;28;20036;-72
2022/10/24 08:33:26;;;;;;;6.97;2.15;;;16.80;99.90;;;;;;5051537;28;20044;-71
2022/10/24 08:36:00;;;;;;;8.00;2.70;;;16.60;99.90;;;;;;5051885;28;20041;-71
2022/10/24 08:38:27;;;;;;;11.02;1.50;;;16.70;99.90;;;;;;5051908;28;20453;-72
2022/10/24 08:40:53;;;;;;;11.00;1.98;;;16.60;99.90;;;;;;5051634;28;20041;-72
2022/10/24 08:43:22;;;;;;;5.00;1.73;;;16.50;99.90;;;;;;5051325;28;20044;-72
2022/10/24 08:46:08;;;;;;;8.60;1.52;;;16.50;99.90;;;;;;5051569;28;20526;-72
2022/10/24 08:48:49;;;;;;;6.30;1.40;;;16.60;99.90;;;;;;5051735;28;20060;-72
2022/10/24 08:51:37;;;;;;;6.97;1.35;;;16.40;99.90;;;;;;5051680;28;20041;-72
2022/10/24 08:54:05;;;;;;;6.63;1.88;;;16.40;99.90;;;;;;5051483;28;20043;-72
2022/10/24 08:56:32;;;;;;;5.47;1.55;;;16.40;99.90;;;;;;5051580;28;20541;-72
2022/10/24 08:59:01;;;;;;;7.78;1.70;;;16.40;99.90;;;;;;5051576;28;20112;-71
2022/10/24 09:01:38;;;;;;;8.52;2.38;;;16.30;99.90;;;;;;5051488;28;20037;-72
2022/10/24 09:04:08;;;;;;;5.32;1.30;;;16.30;99.90;;;;;;5050118;28;20056;-72
2022/10/24 09:06:33;;;;;;;5.72;1.63;;;16.40;99.90;;;;;;5051611;28;20045;-72
2022/10/24 09:09:07;;;;;;;8.18;1.33;;;16.40;99.90;;;;;;5051469;28;20085;-72
2022/10/24 09:11:53;;;;;;;8.93;1.70;;;16.40;99.90;;;;;;5051558;28;20486;-71
2022/10/24 09:14:25;;;;;;;6.63;1.92;;;16.30;99.90;;;;;;5051190;28;20033;-72
2022/10/24 09:16:56;;;;;;;9.32;1.50;;;16.60;99.90;;;;;;5051525;28;20395;-72
2022/10/24 09:19:25;;;;;;;13.05;2.13;;;16.60;99.90;;;;;;5051521;28;20068;-72
2022/10/24 09:21:53;;;;;;;5.57;1.65;;;16.70;99.90;;;;;;5051264;28;20037;-72
2022/10/24 09:24:43;;;;;;;7.57;2.00;;;16.70;99.90;;;;;;5051026;28;20399;-72
2022/10/24 09:27:14;;;;;;;7.10;1.98;;;16.70;99.90;;;;;;5051291;28;20037;-72
2022/10/24 09:29:40;;;;;;;8.23;1.98;;;16.80;99.90;;;;;;5051394;28;20041;-71
2022/10/24 09:32:15;;;;;;;5.68;1.02;;;16.70;99.90;;;;;;5051192;28;20033;-71
2022/10/24 09:34:41;;;;;;;11.95;2.20;;;16.80;99.90;;;;;;5050975;28;20412;-71
2022/10/24 09:37:06;;;;;;;5.95;1.45;;;16.70;99.90;;;;;;5051056;28;20049;-71
2022/10/24 09:39:36;;;;;;;6.70;1.70;;;16.70;99.90;;;;;;5051150;28;20048;-72
2022/10/24 09:42:02;;;;;;;4.60;1.10;;;16.60;99.90;;;;;;5055077;28;20079;-72
2022/10/24 09:44:32;;;;;;;9.43;2.45;;;16.70;99.90;;;;;;5054817;28;20041;-71
2022/10/24 09:46:59;;;;;;;7.43;1.50;;;16.80;99.90;;;;;;5055427;28;20398;-72
2022/10/24 09:49:34;;;;;;;6.80;1.30;;;16.70;99.90;;;;;;5053589;28;20050;-72
2022/10/24 09:51:59;;;;;;;6.18;1.50;;;16.80;99.90;;;;;;5054951;28;20033;-74
2022/10/24 09:54:27;;;;;;;9.20;1.80;;;16.70;99.90;;;;;;5054452;28;20040;-72
2022/10/24 09:57:02;;;;;;;3.45;1.38;;;16.70;99.90;;;;;;5055028;28;20663;-72
2022/10/24 09:59:34;;;;;;;7.20;1.75;;;16.80;99.90;;;;;;5054853;28;20055;-71
2022/10/24 10:02:17;;;;;;;5.78;1.25;;;16.90;99.90;;;;;;5042622;28;20042;-71
2022/10/24 10:04:45;;;;;;;7.68;1.55;;;17.00;99.90;;;;;;5026596;28;20057;-71
2022/10/24 10:07:15;;;;;;;9.48;1.70;;;17.00;99.90;;;;;;5034765;28;20034;-70
2022/10/24 10:09:52;;;;;;;3.97;1.77;;;17.10;99.90;;;;;;5034575;28;20033;-71
2022/10/24 10:12:36;;;;;;;8.23;1.42;;;17.10;99.90;;;;;;5032888;28;20041;-71
2022/10/24 10:15:25;;;;;;;7.15;1.40;;;16.90;99.90;;;;;;5033198;28;20160;-71
2022/10/24 10:17:54;;;;;;;4.93;1.77;;;16.90;99.90;;;;;;5033198;28;20052;-71
2022/10/24 10:20:40;;;;;;;9.55;1.95;;;16.80;99.90;;;;;;5033728;28;20041;-69
2022/10/24 10:23:36;;;;;;;5.60;1.40;;;16.90;99.90;;;;;;5034003;28;20069;-70
2022/10/24 10:26:10;;;;;;;5.55;1.85;;;16.90;99.90;;;;;;5034184;28;20034;-68
2022/10/24 10:28:44;;;;;;;5.72;1.50;;;17.00;99.90;;;;;;5033298;28;20045;-71
2022/10/24 10:31:10;;;;;;;15.65;1.98;;;17.10;99.90;;;;;;5033194;28;20435;-71
2022/10/24 10:33:44;;;;;;;6.13;1.50;;;17.10;99.90;;;;;;5033570;28;20045;-72
2022/10/24 10:36:19;;;;;;;8.38;1.55;;;17.20;99.90;;;;;;5039462;28;20044;-71
2022/10/24 10:38:59;;;;;;;5.80;1.17;;;17.30;99.90;;;;;;5041259;28;20037;-71
2022/10/24 10:41:29;;;;;;;7.95;1.75;;;17.20;99.90;;;;;;5027359;28;20053;-71
2022/10/24 10:44:07;;;;;;;3.30;0.98;;;17.20;99.90;;;;;;5034772;28;20040;-72
2022/10/24 10:46:54;;;;;;;10.80;1.52;;;17.20;99.90;;;;;;5032609;28;20046;-71
2022/10/24 10:49:31;;;;;;;2.80;1.20;;;17.20;99.90;;;;;;5033963;28;20044;-71
2022/10/24 10:52:24;;;;;;;9.25;2.03;;;17.10;99.90;;;;;;5032716;28;20099;-70
2022/10/24 10:54:58;;;;;;;6.10;1.10;;;17.10;99.90;;;;;;5033758;28;20452;-71
2022/10/24 10:57:33;;;;;;;5.00;1.42;;;17.10;99.90;;;;;;5033756;28;20045;-71
2022/10/24 11:00:09;;;;;;;8.32;1.23;;;17.10;99.90;;;;;;5032884;28;20053;-70
2022/10/24 11:02:59;;;;;;;5.35;1.17;;;17.00;99.90;;;;;;5033591;28;20048;-71
2022/10/24 11:05:35;;;;;;;5.82;1.05;;;17.10;99.90;;;;;;5033609;28;20052;-70
2022/10/24 11:08:33;;;;;;;8.20;1.20;;;17.10;99.90;;;;;;5032328;28;20041;-70
2022/10/24 11:11:05;;;;;;;3.80;0.82;;;17.10;99.90;;;;;;5032207;28;20496;-70
2022/10/24 11:13:36;;;;;;;7.32;1.20;;;16.90;99.90;;;;;;5033219;28;20038;-70
2022/10/24 11:16:09;;;;;;;6.72;1.27;;;17.00;99.90;;;;;;5033607;28;20526;-70
2022/10/24 11:18:38;;;;;;;6.73;1.00;;;16.80;99.90;;;;;;5033445;28;20119;-70
2022/10/24 11:21:13;;;;;;;5.75;1.40;;;16.90;99.90;;;;;;5033207;28;20360;-71
2022/10/24 11:23:53;;;;;;;6.70;1.10;;;16.80;99.90;;;;;;5032721;28;20597;-71
2022/10/24 11:26:32;;;;;;;2.47;0.98;;;16.90;99.90;;;;;;5033171;28;20511;-71
2022/10/24 11:29:01;;;;;;;7.60;1.40;;;16.90;99.90;;;;;;5033079;28;20108;-71
2022/10/24 11:31:38;;;;;;;8.65;1.55;;;17.00;99.90;;;;;;5032933;28;20052;-71
2022/10/24 11:34:26;;;;;;;5.60;1.27;;;17.20;99.90;;;;;;5031625;28;20041;-71
2022/10/24 11:37:13;;;;;;;9.55;1.10;;;17.20;99.90;;;;;;5032369;28;20057;-71
2022/10/24 11:39:46;;;;;;;10.20;2.70;;;17.10;99.90;;;;;;5032835;28;20048;-71
2022/10/24 11:42:36;;;;;;;3.63;0.80;;;17.20;99.90;;;;;;5031712;28;20522;-71
2022/10/24 11:45:10;;;;;;;4.22;1.17;;;17.20;99.90;;;;;;5032926;28;20435;-70
2022/10/24 11:48:09;;;;;;;7.00;1.27;;;17.10;99.90;;;;;;5031707;28;20049;-71
2022/10/24 11:50:47;;;;;;;5.95;1.00;;;17.00;99.90;;;;;;5038833;28;20037;-71
2022/10/24 11:53:44;;;;;;;7.03;1.27;;;16.80;99.90;;;;;;5039538;28;20037;-71
2022/10/24 11:56:16;;;;;;;6.40;1.33;;;16.90;99.90;;;;;;5037462;28;20068;-71
2022/10/24 11:59:01;;;;;;;6.15;1.10;;;17.00;99.90;;;;;;5032662;28;20041;-70
2022/10/24 12:01:55;;;;;;;4.35;1.00;;;16.80;99.90;;;;;;5032619;28;20033;-70
2022/10/24 12:04:52;;;;;;;4.10;1.65;;;16.90;99.90;;;;;;5032154;28;20045;-71
2022/10/24 12:07:48;;;;;;;5.07;1.25;;;16.90;99.90;;;;;;5032543;28;20037;-71
2022/10/24 12:10:43;;;;;;;7.25;1.27;;;16.70;99.90;;;;;;5041808;28;20052;-71
2022/10/24 12:13:46;;;;;;;6.15;1.40;;;16.80;99.90;;;;;;5025817;28;20044;-71
2022/10/24 12:16:39;;;;;;;6.43;1.20;;;16.80;99.90;;;;;;5051061;28;20045;-69
2022/10/24 12:19:10;;;;;;;;;;;16.70;99.90;;;;;;5052497;28;20276;-71
2022/10/24 12:21:50;;;;;;;6.68;1.20;;;16.60;99.90;;;;;;5051054;28;19999;-71
2022/10/24 12:24:26;;;;;;;8.25;0.90;;;16.70;99.90;;;;;;5051860;28;20076;-71
2022/10/24 12:26:55;;;;;;;10.65;1.33;;;16.60;99.90;;;;;;5051966;28;20037;-71
2022/10/24 12:29:25;;;;;;;5.97;0.82;;;16.80;99.90;;;;;;5050584;28;20036;-71
2022/10/24 12:31:51;;;;;;;4.78;0.85;;;16.90;99.90;;;;;;5051722;28;20051;-71
2022/10/24 12:34:21;;;;;;;6.18;1.38;;;16.80;99.90;;;;;;5051689;28;20511;-70
2022/10/24 12:37:18;;;;;;;3.85;0.93;;;16.90;99.90;;;;;;5051938;28;20091;-70
2022/10/24 12:39:45;;;;;;;8.75;1.10;;;16.80;99.90;;;;;;5050862;28;20494;-71
2022/10/24 12:42:23;;;;;;;5.43;1.40;;;16.80;99.90;;;;;;5051496;28;20068;-71
2022/10/24 12:45:01;;;;;;;6.03;2.08;;;16.80;99.90;;;;;;5051757;28;20464;-71
2022/10/24 12:47:39;;;;;;;5.90;1.25;;;16.80;99.90;;;;;;5051633;28;20449;-71
2022/10/24 12:50:22;;;;;;;2.83;1.05;;;16.70;99.90;;;;;;5051707;28;20063;-71
2022/10/24 12:52:49;;;;;;;6.15;1.13;;;16.70;99.90;;;;;;5050863;28;20073;-70
2022/10/24 12:55:36;;;;;;;5.72;1.85;;;16.60;99.90;;;;;;5051619;28;20052;-71
2022/10/24 12:58:23;;;;;;;6.97;1.13;;;16.60;99.90;;;;;;5050613;28;20049;-71
2022/10/24 13:01:04;;;;;;;9.38;1.40;;;16.50;99.90;;;;;;5050376;28;20052;-72
2022/10/24 13:03:42;;;;;;;7.13;1.20;;;16.50;99.90;;;;;;5033366;28;20155;-71
2022/10/24 13:06:22;;;;;;;6.53;1.52;;;16.60;99.90;;;;;;5051642;28;20507;-72